Time;durP1;ratioP1;P1;durP2;ratioP2;P2;SDS_P1;SDS_P2;PMS_P1;PMS_P2;Temp;Humidity;BMP_temperature;BMP_pressure;BME280_temperature;BME280_humidity;BME280_pressure;Samples;Min_cycle;Max_cycle;Signal;HPM_P1;HPM_P2
2021/10/22 00:00:45;;;;;;;28.83;6.97;;;;;;;3.73;100.00;101677.47;5197936;28;20040;-73
2021/10/22 00:03:15;;;;;;;37.25;6.75;;;;;;;3.85;100.00;101673.16;5198938;28;20030;-73
2021/10/22 00:05:46;;;;;;;26.33;5.55;;;;;;;3.93;100.00;101683.25;5197084;28;20052;-72
2021/10/22 00:08:16;;;;;;;28.92;7.05;;;;;;;4.01;100.00;101681.78;5198776;28;20041;-73
2021/10/22 00:10:47;;;;;;;24.63;6.13;;;;;;;4.08;100.00;101682.22;5198440;28;20024;-73
2021/10/22 00:13:18;;;;;;;31.23;6.25;;;;;;;4.13;100.00;101674.81;5199067;28;20021;-73
2021/10/22 00:15:49;;;;;;;35.47;6.45;;;;;;;4.16;100.00;101677.22;5198698;28;20029;-72
2021/10/22 00:18:20;;;;;;;24.10;6.13;;;;;;;4.18;100.00;101683.31;5198138;28;20099;-73
2021/10/22 00:20:51;;;;;;;34.13;8.57;;;;;;;4.19;100.00;101677.03;5197957;28;20025;-74
2021/10/22 00:23:22;;;;;;;19.48;6.35;;;;;;;4.18;100.00;101685.97;5198922;28;20052;-73
2021/10/22 00:25:52;;;;;;;28.88;6.30;;;;;;;4.16;100.00;101677.22;5198553;28;20107;-72
2021/10/22 00:28:23;;;;;;;24.50;6.40;;;;;;;4.18;100.00;101674.50;5198539;28;20033;-72
2021/10/22 00:30:53;;;;;;;17.10;5.35;;;;;;;4.21;100.00;101680.41;5197944;28;20526;-72
2021/10/22 00:33:24;;;;;;;28.67;6.07;;;;;;;4.22;100.00;101675.97;5198938;28;20032;-72
2021/10/22 00:35:54;;;;;;;37.10;5.18;;;;;;;4.23;100.00;101683.00;5198056;28;20030;-72
2021/10/22 00:38:25;;;;;;;22.25;5.93;;;;;;;4.24;100.00;101674.06;5198537;28;20143;-72
2021/10/22 00:40:55;;;;;;;18.95;5.43;;;;;;;4.26;100.00;101672.97;5197582;28;20503;-72
2021/10/22 00:43:32;;;;;;;26.63;7.00;;;;;;;4.23;100.00;101673.22;5198131;28;20037;-72
2021/10/22 00:46:02;;;;;;;25.25;6.30;;;;;;;4.23;100.00;101667.06;5200958;28;20526;-72
2021/10/22 00:48:36;;;;;;;20.58;5.00;;;;;;;4.19;100.00;101671.72;5202687;28;20113;-71
2021/10/22 00:51:10;;;;;;;28.83;5.03;;;;;;;4.16;100.00;101658.63;5201613;28;20058;-72
2021/10/22 00:53:41;;;;;;;20.55;5.07;;;;;;;4.15;100.00;101664.91;5202131;28;20116;-72
2021/10/22 00:56:12;;;;;;;25.08;5.13;;;;;;;4.14;100.00;101663.22;5201588;28;20393;-72
2021/10/22 00:58:43;;;;;;;33.55;7.15;;;;;;;4.15;100.00;101657.78;5202087;28;20033;-72
2021/10/22 01:01:13;;;;;;;22.77;4.88;;;;;;;4.16;100.00;101661.28;5192312;28;20091;-73
2021/10/22 01:03:44;;;;;;;25.63;5.75;;;;;;;4.10;100.00;101667.03;5199521;28;20029;-72
2021/10/22 01:06:14;;;;;;;24.45;5.15;;;;;;;4.06;100.00;101671.69;5201956;28;20684;-72
2021/10/22 01:08:45;;;;;;;28.80;5.18;;;;;;;4.05;100.00;101669.16;5201599;28;20386;-72
2021/10/22 01:11:16;;;;;;;23.90;5.03;;;;;;;4.05;100.00;101669.16;5202033;28;20514;-72
2021/10/22 01:14:00;;;;;;;25.20;5.95;;;;;;;4.01;100.00;101670.31;5189845;28;20018;-72
2021/10/22 01:16:49;;;;;;;26.08;5.43;;;;;;;3.99;100.00;101669.56;5201416;28;20510;-72
2021/10/22 01:19:20;;;;;;;24.83;4.35;;;;;;;3.99;100.00;101667.75;5201623;28;20017;-72
2021/10/22 01:22:00;;;;;;;25.52;5.10;;;;;;;3.96;100.00;101659.16;5201763;28;20117;-71
2021/10/22 01:24:50;;;;;;;24.73;5.00;;;;;;;3.98;100.00;101665.22;5214930;28;20454;-72
2021/10/22 01:27:22;;;;;;;25.90;4.68;;;;;;;3.96;100.00;101659.16;5201309;28;20128;-72
2021/10/22 01:29:53;;;;;;;16.48;4.43;;;;;;;3.94;100.00;101666.38;5201721;28;20120;-72
2021/10/22 01:32:24;;;;;;;19.42;4.63;;;;;;;3.89;100.00;101654.25;5201623;28;20100;-72
2021/10/22 01:34:54;;;;;;;31.05;5.30;;;;;;;3.88;100.00;101649.06;5201787;28;20021;-72
2021/10/22 01:37:25;;;;;;;16.85;3.90;;;;;;;3.87;100.00;101660.63;5201211;28;20410;-72
2021/10/22 01:39:55;;;;;;;23.10;4.72;;;;;;;3.87;100.00;101657.97;5200951;28;20513;-72
2021/10/22 01:42:28;;;;;;;23.52;5.40;;;;;;;3.85;100.00;101655.41;5201040;28;20021;-72
2021/10/22 01:44:59;;;;;;;23.02;4.68;;;;;;;3.83;100.00;101648.53;5201503;28;20468;-72
2021/10/22 01:47:29;;;;;;;23.95;5.22;;;;;;;3.82;100.00;101650.31;5200966;28;20025;-72
2021/10/22 01:50:00;;;;;;;26.08;5.07;;;;;;;3.81;100.00;101647.75;5200877;28;20364;-72
2021/10/22 01:52:33;;;;;;;22.95;4.65;;;;;;;3.81;100.00;101651.25;5201107;28;20660;-73
2021/10/22 01:55:05;;;;;;;22.83;3.88;;;;;;;3.78;100.00;101648.81;5201119;28;20376;-72
2021/10/22 01:57:35;;;;;;;32.15;4.45;;;;;;;3.82;100.00;101658.28;5200573;28;20035;-73
2021/10/22 02:00:07;;;;;;;23.60;4.65;;;;;;;3.84;100.00;101656.38;5200364;28;20037;-73
2021/10/22 02:02:38;;;;;;;18.55;4.15;;;;;;;3.82;100.00;101658.28;5200443;28;20096;-72
2021/10/22 02:05:08;;;;;;;22.42;5.38;;;;;;;3.82;100.00;101655.63;5201065;28;20252;-72
2021/10/22 02:07:39;;;;;;;26.30;4.20;;;;;;;3.80;100.00;101660.19;5200840;28;20029;-72
2021/10/22 02:10:10;;;;;;;32.63;4.28;;;;;;;3.83;100.00;101661.78;5200679;28;20475;-72
2021/10/22 02:12:41;;;;;;;21.13;4.65;;;;;;;3.83;100.00;101659.13;5201286;28;20134;-74
2021/10/22 02:15:12;;;;;;;26.67;4.88;;;;;;;3.81;100.00;101659.22;5200382;28;20045;-72
2021/10/22 02:17:43;;;;;;;32.88;5.45;;;;;;;3.80;100.00;101652.22;5200671;28;20134;-74
2021/10/22 02:20:14;;;;;;;24.20;5.32;;;;;;;3.81;100.00;101655.72;5200375;28;20034;-74
2021/10/22 02:22:45;;;;;;;15.60;3.78;;;;;;;3.80;100.00;101654.88;5200736;28;20525;-73
2021/10/22 02:25:15;;;;;;;20.05;3.85;;;;;;;3.85;100.00;101655.41;5199183;28;20025;-73
2021/10/22 02:27:46;;;;;;;24.52;4.55;;;;;;;3.85;100.00;101650.09;5200517;28;20037;-73
2021/10/22 02:30:16;;;;;;;12.57;4.40;;;;;;;3.80;100.00;101657.53;5200501;28;20171;-73
2021/10/22 02:32:47;;;;;;;22.02;4.28;;;;;;;3.78;100.00;101659.44;5200702;28;20033;-73
2021/10/22 02:35:18;;;;;;;25.00;3.78;;;;;;;3.85;100.00;101652.75;5200716;28;20073;-73
2021/10/22 02:37:48;;;;;;;21.13;3.60;;;;;;;3.84;100.00;101656.38;5200347;28;20029;-73
2021/10/22 02:40:19;;;;;;;25.65;4.85;;;;;;;3.83;100.00;101649.38;5200132;28;20256;-73
2021/10/22 02:42:50;;;;;;;30.33;4.43;;;;;;;3.86;100.00;101654.44;5200265;28;20022;-73
2021/10/22 02:45:20;;;;;;;14.40;4.00;;;;;;;3.87;100.00;101653.53;5200368;28;20029;-73
2021/10/22 02:47:51;;;;;;;23.38;4.97;;;;;;;3.85;100.00;101649.25;5199725;28;20053;-73
2021/10/22 02:50:21;;;;;;;18.52;3.10;;;;;;;3.85;100.00;101642.13;5198372;28;20025;-74
2021/10/22 02:52:52;;;;;;;14.73;3.22;;;;;;;3.87;100.00;101645.56;5199624;28;20037;-74
2021/10/22 02:55:22;;;;;;;21.95;3.92;;;;;;;3.94;100.00;101639.81;5200025;28;20021;-73
2021/10/22 02:57:53;;;;;;;18.73;4.50;;;;;;;3.95;100.00;101637.06;5199972;28;20485;-73
2021/10/22 03:00:23;;;;;;;28.02;3.05;;;;;;;3.96;100.00;101644.06;5196450;28;20030;-74
2021/10/22 03:02:55;;;;;;;28.42;3.92;;;;;;;3.96;100.00;101637.91;5190004;28;20438;-74
2021/10/22 03:05:26;;;;;;;9.05;3.53;;;;;;;3.97;100.00;101636.97;5199920;28;20053;-73
2021/10/22 03:07:57;;;;;;;15.23;3.20;;;;;;;3.94;100.00;101627.41;5198924;28;20029;-75
2021/10/22 03:10:28;;;;;;;19.13;3.25;;;;;;;3.98;100.00;101633.34;5199920;28;20029;-75
2021/10/22 03:12:58;;;;;;;17.90;3.33;;;;;;;3.97;100.00;101621.91;5199717;28;20322;-74
2021/10/22 03:15:29;;;;;;;24.55;3.63;;;;;;;3.98;100.00;101620.09;5199351;28;20017;-74
2021/10/22 03:18:00;;;;;;;19.83;3.45;;;;;;;3.94;100.00;101610.63;5199493;28;20033;-74
2021/10/22 03:20:31;;;;;;;12.70;3.25;;;;;;;3.97;100.00;101624.56;5199392;28;20483;-74
2021/10/22 03:23:04;;;;;;;15.93;2.88;;;;;;;3.95;100.00;101625.59;5199465;28;20063;-75
2021/10/22 03:25:34;;;;;;;17.92;3.58;;;;;;;3.98;100.00;101631.56;5199520;28;20633;-74
2021/10/22 03:28:05;;;;;;;12.90;2.78;;;;;;;3.95;100.00;101636.22;5199467;28;20049;-75
2021/10/22 03:30:37;;;;;;;16.70;2.95;;;;;;;4.00;100.00;101632.28;5199364;28;20371;-74
2021/10/22 03:33:08;;;;;;;21.55;3.15;;;;;;;4.04;100.00;101636.44;5199497;28;20051;-73
2021/10/22 03:35:38;;;;;;;12.82;2.63;;;;;;;4.06;100.00;101631.00;5199183;28;20030;-73
2021/10/22 03:38:09;;;;;;;17.58;3.78;;;;;;;4.08;100.00;101618.50;5199290;28;20036;-73
2021/10/22 03:40:39;;;;;;;16.83;3.45;;;;;;;4.01;100.00;101633.97;5196947;28;20414;-73
2021/10/22 03:43:10;;;;;;;18.63;2.75;;;;;;;4.01;100.00;101633.97;5199465;28;20108;-73
2021/10/22 03:45:40;;;;;;;16.27;3.00;;;;;;;4.01;100.00;101620.69;5199117;28;20036;-73
2021/10/22 03:48:11;;;;;;;17.60;3.67;;;;;;;4.06;100.00;101625.69;5199167;28;20045;-73
2021/10/22 03:50:42;;;;;;;17.52;3.08;;;;;;;4.03;100.00;101617.97;5198839;28;20022;-73
2021/10/22 03:53:12;;;;;;;17.95;2.20;;;;;;;4.01;100.00;101623.34;5198907;28;20428;-75
2021/10/22 03:55:42;;;;;;;13.85;2.83;;;;;;;3.98;100.00;101614.78;5198701;28;20116;-75
2021/10/22 03:58:13;;;;;;;16.75;3.58;;;;;;;3.96;100.00;101621.97;5199362;28;20399;-75
2021/10/22 04:00:46;;;;;;;17.98;4.43;;;;;;;3.96;100.00;101628.13;5198604;28;20029;-74
2021/10/22 04:03:16;;;;;;;9.52;3.30;;;;;;;3.98;100.00;101623.59;5198853;28;20034;-74
2021/10/22 04:05:46;;;;;;;14.70;3.03;;;;;;;4.00;100.00;101629.63;5198513;28;20086;-75
2021/10/22 04:08:18;;;;;;;22.35;3.67;;;;;;;4.00;100.00;101620.81;5198798;28;20025;-75
2021/10/22 04:10:48;;;;;;;13.43;3.00;;;;;;;4.01;100.00;101631.31;5198193;28;20064;-74
2021/10/22 04:13:19;;;;;;;24.13;4.82;;;;;;;4.05;100.00;101627.50;5198702;28;20053;-75
2021/10/22 04:15:49;;;;;;;13.73;2.40;;;;;;;4.12;100.00;101612.88;5198474;28;20029;-75
2021/10/22 04:18:20;;;;;;;20.80;5.70;;;;;;;4.13;100.00;101619.03;5198642;28;20041;-75
2021/10/22 04:20:50;;;;;;;60.47;22.70;;;;;;;4.15;100.00;101625.06;5202699;28;20025;-75
2021/10/22 04:23:21;;;;;;;22.88;5.85;;;;;;;4.14;100.00;101629.53;5203101;28;20048;-74
2021/10/22 04:25:53;;;;;;;81.53;39.20;;;;;;;4.15;100.00;101639.19;5203022;28;20029;-74
2021/10/22 04:28:24;;;;;;;33.13;14.60;;;;;;;4.17;100.00;101631.16;5203092;28;20108;-74
2021/10/22 04:30:55;;;;;;;21.10;11.07;;;;;;;4.15;100.00;101643.66;5202214;28;20104;-74
2021/10/22 04:33:26;;;;;;;15.38;2.67;;;;;;;4.15;100.00;101638.34;5202986;28;20527;-74
2021/10/22 04:35:57;;;;;;;15.45;4.28;;;;;;;4.12;100.00;101642.09;5202533;28;20025;-74
2021/10/22 04:41:16;;;;;;;11.80;2.63;;;;;;;4.14;100.00;101647.28;5202115;28;20430;-75
2021/10/22 04:43:50;;;;;;;17.63;3.17;;;;;;;4.15;100.00;101644.50;5202668;28;20055;-75
2021/10/22 04:46:20;;;;;;;20.50;5.00;;;;;;;4.14;100.00;101653.44;5189722;28;20092;-74
2021/10/22 04:48:51;;;;;;;10.60;3.00;;;;;;;4.14;100.00;101656.09;5202355;28;20056;-74
2021/10/22 04:51:22;;;;;;;20.10;3.72;;;;;;;4.15;100.00;101656.94;5201978;28;20026;-73
2021/10/22 04:53:53;;;;;;;11.85;2.70;;;;;;;4.14;100.00;101657.91;5202991;28;20027;-73
2021/10/22 04:56:23;;;;;;;29.83;17.55;;;;;;;4.19;100.00;101639.84;5202160;28;20033;-73
2021/10/22 04:58:54;;;;;;;15.93;3.10;;;;;;;4.22;100.00;101644.09;5202217;28;20056;-74
2021/10/22 05:01:24;;;;;;;13.40;3.50;;;;;;;4.25;100.00;101636.75;5190935;28;20108;-74
2021/10/22 05:03:55;;;;;;;15.38;5.50;;;;;;;4.33;100.00;101639.75;5200896;28;20494;-73
2021/10/22 05:06:25;;;;;;;14.63;4.57;;;;;;;4.31;100.00;101646.94;5201840;28;20033;-73
2021/10/22 05:08:56;;;;;;;25.98;8.10;;;;;;;4.29;100.00;101651.53;5201665;28;20029;-74
2021/10/22 05:11:26;;;;;;;20.30;5.38;;;;;;;4.27;100.00;101652.63;5202205;28;20060;-74
2021/10/22 05:13:56;;;;;;;18.60;4.47;;;;;;;4.31;100.00;101654.06;5202229;28;20104;-73
2021/10/22 05:16:27;;;;;;;17.63;3.35;;;;;;;4.29;100.00;101654.19;5200977;28;20025;-73
2021/10/22 05:18:57;;;;;;;13.00;3.47;;;;;;;4.25;100.00;101655.34;5201753;28;20026;-73
2021/10/22 05:21:28;;;;;;;15.80;3.00;;;;;;;4.31;100.00;101652.28;5201384;28;20021;-73
2021/10/22 05:23:58;;;;;;;14.05;3.90;;;;;;;4.32;100.00;101671.75;5201846;28;20430;-73
2021/10/22 05:26:29;;;;;;;17.90;4.60;;;;;;;4.32;100.00;101671.75;5201584;28;20100;-73
2021/10/22 05:28:59;;;;;;;20.73;4.40;;;;;;;4.33;100.00;101679.59;5201171;28;20040;-73
2021/10/22 05:31:30;;;;;;;14.23;3.03;;;;;;;4.34;100.00;101675.13;5200672;28;20021;-73
2021/10/22 05:34:00;;;;;;;16.70;3.72;;;;;;;4.33;100.00;101674.28;5201808;28;20430;-74
2021/10/22 05:36:31;;;;;;;16.17;3.65;;;;;;;4.31;100.00;101668.22;5201708;28;20498;-73
2021/10/22 05:39:01;;;;;;;11.05;2.90;;;;;;;4.28;100.00;101671.09;5201467;28;20116;-73
2021/10/22 05:41:32;;;;;;;13.65;2.83;;;;;;;4.30;100.00;101665.66;5200976;28;20017;-73
2021/10/22 05:44:03;;;;;;;12.73;4.10;;;;;;;4.29;100.00;101666.63;5201535;28;20035;-73
2021/10/22 05:46:33;;;;;;;35.38;5.47;;;;;;;4.25;100.00;101665.97;5201160;28;20507;-73
2021/10/22 05:49:04;;;;;;;21.85;3.45;;;;;;;4.25;100.00;101668.63;5201101;28;20033;-73
2021/10/22 05:51:35;;;;;;;26.73;8.50;;;;;;;4.30;100.00;101669.16;5201430;28;20461;-73
2021/10/22 05:54:05;;;;;;;12.48;2.75;;;;;;;4.29;100.00;101667.47;5200912;28;20136;-73
2021/10/22 05:56:36;;;;;;;12.48;3.17;;;;;;;4.28;100.00;101665.78;5201199;28;20331;-73
2021/10/22 05:59:07;;;;;;;17.52;3.45;;;;;;;4.27;100.00;101663.25;5200899;28;20029;-73
2021/10/22 06:01:39;;;;;;;14.57;2.97;;;;;;;4.30;100.00;101655.88;5200647;28;20132;-73
2021/10/22 06:04:09;;;;;;;13.00;2.90;;;;;;;4.31;100.00;101656.72;5200935;28;20028;-75
2021/10/22 06:06:40;;;;;;;17.23;3.15;;;;;;;4.28;100.00;101649.84;5201271;28;20025;-75
2021/10/22 06:09:12;;;;;;;11.82;2.80;;;;;;;4.29;100.00;101648.88;5200868;28;20111;-75
2021/10/22 06:11:42;;;;;;;12.63;2.90;;;;;;;4.33;100.00;101646.88;5200988;28;20494;-74
2021/10/22 06:14:13;;;;;;;9.48;2.55;;;;;;;4.33;100.00;101647.72;5201738;28;20052;-75
2021/10/22 06:16:43;;;;;;;10.23;2.53;;;;;;;4.31;100.00;101638.13;5200225;28;20391;-74
2021/10/22 06:19:18;;;;;;;18.35;4.75;;;;;;;4.31;100.00;101640.78;5200662;28;20052;-73
2021/10/22 06:22:05;;;;;;;15.38;3.53;;;;;;;4.33;100.00;101639.75;5200410;28;20029;-73
2021/10/22 06:24:37;;;;;;;12.35;3.05;;;;;;;4.30;100.00;101637.28;5200902;28;20022;-73
2021/10/22 06:27:09;;;;;;;13.05;3.00;;;;;;;4.33;100.00;101644.22;5200492;28;20076;-73
2021/10/22 06:29:39;;;;;;;24.15;3.60;;;;;;;4.34;100.00;101645.91;5200823;28;20024;-73
2021/10/22 06:32:10;;;;;;;19.35;4.57;;;;;;;4.37;100.00;101643.06;5200599;28;20116;-73
2021/10/22 06:34:40;;;;;;;17.17;3.35;;;;;;;4.39;100.00;101644.63;5200614;28;20033;-73
2021/10/22 06:37:11;;;;;;;17.67;3.85;;;;;;;4.47;100.00;101648.53;5200051;28;20116;-73
2021/10/22 06:39:41;;;;;;;14.80;3.10;;;;;;;4.52;100.00;101646.41;5191571;28;20025;-73
2021/10/22 06:42:12;;;;;;;20.95;4.93;;;;;;;4.70;100.00;101644.28;5184677;28;20018;-73
2021/10/22 06:44:42;;;;;;;15.50;3.15;;;;;;;4.73;100.00;101649.41;5194992;28;20049;-73
2021/10/22 06:47:13;;;;;;;22.10;3.22;;;;;;;4.74;100.00;101645.78;5197382;28;20021;-74
2021/10/22 06:49:43;;;;;;;18.33;4.75;;;;;;;4.77;100.00;101654.38;5197360;28;20479;-73
2021/10/22 06:52:14;;;;;;;22.58;4.65;;;;;;;4.86;100.00;101647.53;5211865;28;20390;-74
2021/10/22 06:54:44;;;;;;;13.75;2.95;;;;;;;4.90;100.00;101655.19;5176319;28;20029;-73
2021/10/22 06:57:15;;;;;;;20.95;9.00;;;;;;;4.93;100.00;101662.97;5194269;28;20116;-73
2021/10/22 06:59:45;;;;;;;17.15;3.88;;;;;;;5.04;100.00;101662.19;5197845;28;20026;-73
2021/10/22 07:02:16;;;;;;;19.90;3.50;;;;;;;5.17;100.00;101654.16;5196439;28;20029;-73
2021/10/22 07:04:49;;;;;;;13.23;3.85;;;;;;;5.25;100.00;101666.91;5197479;28;20302;-73
2021/10/22 07:07:21;;;;;;;16.25;3.08;;;;;;;5.38;100.00;101670.38;5197319;28;20047;-73
2021/10/22 07:09:51;;;;;;;19.17;2.90;;;;;;;5.60;100.00;101670.47;5195955;28;20053;-73
2021/10/22 07:12:22;;;;;;;16.23;3.63;;;;;;;5.67;100.00;101663.75;5197623;28;20109;-73
2021/10/22 07:14:56;;;;;;;9.52;2.72;;;;;;;5.77;100.00;101661.22;5212737;28;20017;-74
2021/10/22 07:17:27;;;;;;;15.38;2.58;;;;;;;5.88;100.00;101660.44;5196713;28;20033;-74
2021/10/22 07:19:57;;;;;;;11.32;2.35;;;;;;;6.02;100.00;101670.06;5199197;28;20029;-74
2021/10/22 07:22:32;;;;;;;18.33;4.30;;;;;;;6.12;100.00;101668.38;5217536;28;20024;-74
2021/10/22 07:25:04;;;;;;;23.67;6.03;;;;;;;6.37;100.00;101676.19;5199093;28;20406;-73
2021/10/22 07:27:35;;;;;;;29.80;6.05;;;;;;;6.67;100.00;101670.28;5196785;28;20048;-73
2021/10/22 07:30:06;;;;;;;15.18;3.58;;;;;;;7.07;100.00;101663.59;5196653;28;20414;-74
2021/10/22 07:32:38;;;;;;;16.52;4.45;;;;;;;7.67;100.00;101672.91;5196759;28;20029;-74
2021/10/22 07:35:09;;;;;;;32.50;6.70;;;;;;;8.08;100.00;101671.25;5197100;28;20090;-74
2021/10/22 07:37:40;;;;;;;28.40;5.68;;;;;;;8.26;100.00;101667.88;5196904;28;20025;-74
2021/10/22 07:40:11;;;;;;;14.38;2.63;;;;;;;8.67;100.00;101665.28;5211729;28;20325;-74
2021/10/22 07:42:42;;;;;;;9.50;2.30;;;;;;;8.95;100.00;101667.25;5192283;28;20404;-74
2021/10/22 07:45:12;;;;;;;9.02;2.42;;;;;;;9.20;100.00;101673.09;5188610;28;20046;-74
2021/10/22 07:47:43;;;;;;;12.98;2.28;;;;;;;9.58;100.00;101672.31;5195487;28;20390;-74
2021/10/22 07:50:13;;;;;;;32.53;12.25;;;;;;;9.82;100.00;101674.56;5197040;28;20099;-74
2021/10/22 07:52:44;;;;;;;16.45;4.35;;;;;;;9.88;100.00;101678.53;5196566;28;20044;-74
2021/10/22 07:55:15;;;;;;;9.40;3.05;;;;;;;10.29;100.00;101674.69;5196979;28;20029;-74
2021/10/22 07:57:45;;;;;;;15.25;2.40;;;;;;;10.10;100.00;101680.94;5212805;28;20430;-74
2021/10/22 08:00:16;;;;;;;12.18;3.55;;;;;;;10.43;100.00;101702.91;5193183;28;20029;-74
2021/10/22 08:02:47;;;;;;;13.40;3.65;;;;;;;10.32;100.00;101691.34;5185870;28;20117;-75
2021/10/22 08:05:18;;;;;;;11.00;2.63;;;;;;;10.20;100.00;101695.16;5195814;28;20100;-74
2021/10/22 08:07:49;;;;;;;16.48;2.58;;;;;;;9.59;100.00;101695.47;5196961;28;20033;-75
2021/10/22 08:10:21;;;;;;;13.75;3.30;;;;;;;9.59;100.00;101700.81;5196425;28;20539;-74
2021/10/22 08:12:52;;;;;;;18.08;2.72;;;;;;;9.59;100.00;101701.66;5211553;28;20056;-75
2021/10/22 08:15:22;;;;;;;11.55;1.95;;;;;;;9.87;100.00;101707.16;5196364;28;20072;-75
2021/10/22 08:17:53;;;;;;;9.88;2.00;;;;;;;9.80;100.00;101708.72;5194427;28;20500;-74
2021/10/22 08:20:24;;;;;;;9.48;2.35;;;;;;;10.10;100.00;101715.78;5196552;28;20026;-76
2021/10/22 08:22:55;;;;;;;11.88;2.33;;;;;;;10.61;100.00;101715.44;5196267;28;20407;-73
2021/10/22 08:25:25;;;;;;;9.63;2.20;;;;;;;10.61;100.00;101725.34;5195374;28;20026;-73
2021/10/22 08:27:56;;;;;;;11.85;2.63;;;;;;;10.49;100.00;101731.84;5196000;28;20041;-73
2021/10/22 08:30:27;;;;;;;10.40;2.13;;;;;;;10.10;100.00;101732.72;5195707;28;20489;-74
2021/10/22 08:32:59;;;;;;;14.02;2.25;;;;;;;10.65;100.00;101737.47;5195983;28;20506;-73
2021/10/22 08:35:32;;;;;;;10.70;2.22;;;;;;;10.88;100.00;101741.47;5196992;28;20075;-74
2021/10/22 08:38:04;;;;;;;9.02;2.05;;;;;;;11.10;100.00;101740.28;5196848;28;20475;-73
2021/10/22 08:40:34;;;;;;;12.93;3.25;;;;;;;11.26;100.00;101745.00;5195966;28;20036;-74
2021/10/22 08:43:05;;;;;;;8.15;2.10;;;;;;;11.54;100.00;101742.31;5196596;28;20029;-74
2021/10/22 08:45:37;;;;;;;9.07;2.72;;;;;;;11.76;100.00;101749.13;5196671;28;20099;-74
2021/10/22 08:48:09;;;;;;;12.00;2.85;;;;;;;11.50;100.00;101740.94;5196936;28;20029;-74
2021/10/22 08:50:40;;;;;;;7.00;1.95;;;;;;;11.85;100.00;101738.31;5196440;28;20052;-74
2021/10/22 08:53:12;;;;;;;11.98;2.70;;;;;;;11.77;100.00;101750.78;5196829;28;20467;-73
2021/10/22 08:55:43;;;;;;;11.10;2.38;;;;;;;11.75;100.00;101758.19;5201350;28;20505;-73
2021/10/22 08:58:18;;;;;;;13.20;2.72;;;;;;;12.06;100.00;101756.84;5205369;28;20083;-74
2021/10/22 09:00:48;;;;;;;12.45;2.78;;;;;;;11.92;100.00;101755.53;5195774;28;20017;-73
2021/10/22 09:03:19;;;;;;;14.45;3.25;;;;;;;11.65;100.00;101761.78;5196771;28;20060;-73
2021/10/22 09:06:04;;;;;;;18.10;4.45;;;;;;;11.64;100.00;101762.75;5195950;28;20076;-74
2021/10/22 09:08:37;;;;;;;19.63;3.72;;;;;;;11.45;100.00;101753.97;5199875;28;20475;-74
2021/10/22 09:11:29;;;;;;;12.63;2.95;;;;;;;11.61;100.00;101765.75;5199845;28;20056;-73
2021/10/22 09:14:04;;;;;;;13.00;2.50;;;;;;;11.71;100.00;101765.69;5187769;28;20391;-73
2021/10/22 09:16:42;;;;;;;9.02;2.15;;;;;;;12.22;100.00;101766.06;5199849;28;20057;-73
2021/10/22 09:19:12;;;;;;;8.10;2.10;;;;;;;12.55;100.00;101759.94;5200020;28;20025;-73
2021/10/22 09:21:43;;;;;;;11.23;2.67;;;;;;;12.55;100.00;101757.25;5212307;28;20032;-74
2021/10/22 09:24:15;;;;;;;7.38;1.90;;;;;;;12.28;100.00;101755.50;5215206;28;20087;-74
2021/10/22 09:26:53;;;;;;;13.18;2.67;;;;;;;11.99;100.00;101755.75;5200010;28;20037;-74
2021/10/22 09:29:27;;;;;;;10.32;2.60;;;;;;;11.84;100.00;101752.75;5199282;28;20029;-75
2021/10/22 09:31:58;;;;;;;10.23;2.60;;;;;;;12.22;100.00;101760.69;5200385;28;20025;-75
2021/10/22 09:34:34;;;;;;;18.75;7.45;;;;;;;12.11;100.00;101757.22;5199522;28;20048;-74
2021/10/22 09:37:10;;;;;;;16.80;2.92;;;;;;;12.03;100.00;101761.69;5199477;28;20317;-73
2021/10/22 09:39:40;;;;;;;10.40;2.40;;;;;;;12.09;100.00;101753.81;5199345;28;20568;-74
2021/10/22 09:42:16;;;;;;;15.00;2.10;;;;;;;12.24;100.00;101754.13;5199716;28;20334;-74
2021/10/22 09:44:47;;;;;;;17.65;3.47;;;;;;;12.03;100.00;101756.28;5199235;28;20048;-74
2021/10/22 09:47:19;;;;;;;14.93;2.95;;;;;;;12.24;100.00;101762.19;5199398;28;20490;-73
2021/10/22 09:49:53;;;;;;;13.55;2.50;;;;;;;12.28;100.00;101776.19;5198999;28;20041;-73
2021/10/22 09:52:27;;;;;;;10.73;3.05;;;;;;;12.18;100.00;101762.81;5198302;28;20081;-74
2021/10/22 09:55:12;;;;;;;13.75;2.63;;;;;;;12.39;100.00;101754.41;5199052;28;20108;-74
2021/10/22 09:57:45;;;;;;;14.15;2.47;;;;;;;12.43;100.00;101758.50;5198958;28;20459;-74
2021/10/22 10:00:21;;;;;;;8.73;2.47;;;;;;;12.39;100.00;101751.72;5196747;28;20302;-74
2021/10/22 10:02:52;;;;;;;17.95;2.55;;;;;;;12.11;100.00;101762.59;5188970;28;20021;-74
2021/10/22 10:05:24;;;;;;;8.13;2.15;;;;;;;12.04;100.00;101766.88;5214675;28;20139;-74
2021/10/22 10:07:58;;;;;;;11.75;2.55;;;;;;;12.21;100.00;101759.00;5199650;28;20026;-75
2021/10/22 10:10:29;;;;;;;8.05;2.10;;;;;;;11.84;100.00;101751.91;5198534;28;20032;-75
2021/10/22 10:12:59;;;;;;;15.20;2.90;;;;;;;11.88;100.00;101758.66;5199213;28;20372;-74
2021/10/22 10:15:32;;;;;;;14.85;2.33;;;;;;;11.86;100.00;101763.38;5198155;28;20028;-74
2021/10/22 10:18:07;;;;;;;15.55;2.78;;;;;;;12.22;100.00;101774.13;5196990;28;20376;-75
2021/10/22 10:20:39;;;;;;;11.52;2.78;;;;;;;12.41;100.00;101777.50;5197263;28;20034;-73
2021/10/22 10:23:10;;;;;;;11.10;2.00;;;;;;;12.66;100.00;101773.16;5197958;28;20048;-74
2021/10/22 10:25:40;;;;;;;12.55;2.05;;;;;;;12.55;100.00;101776.09;5196377;28;20030;-74
2021/10/22 10:28:12;;;;;;;14.48;1.80;;;;;;;12.35;100.00;101774.56;5197825;28;20021;-74
2021/10/22 10:30:43;;;;;;;12.32;5.53;;;;;;;12.39;100.00;101784.03;5212876;28;20025;-74
2021/10/22 10:33:31;;;;;;;16.17;4.57;;;;;;;12.38;100.00;101783.19;5197745;28;20037;-74
2021/10/22 10:36:01;;;;;;;48.63;16.20;;;;;;;12.65;100.00;101789.44;5197441;28;20706;-75
2021/10/22 10:38:46;;;;;;;14.35;5.75;;;;;;;12.70;100.00;101777.22;5198180;28;20061;-74
2021/10/22 10:41:19;;;;;;;9.93;1.75;;;;;;;12.89;100.00;101783.38;5196523;28;20277;-74
2021/10/22 10:43:50;;;;;;;9.25;2.25;;;;;;;12.95;100.00;101780.03;5184532;28;20025;-74
2021/10/22 10:46:33;;;;;;;12.02;2.10;;;;;;;13.03;100.00;101776.56;5205096;28;20113;-74
2021/10/22 10:49:03;;;;;;;8.18;1.80;;;;;;;12.85;100.00;101765.84;5201327;28;20391;-74
2021/10/22 10:51:36;;;;;;;7.68;2.30;;;;;;;13.11;100.00;101773.94;5198022;28;20338;-74
2021/10/22 10:54:06;;;;;;;12.15;1.80;;;;;;;13.25;100.00;101775.19;5196110;28;20033;-74
2021/10/22 10:56:38;;;;;;;10.93;1.80;;;;;;;13.08;100.00;101790.41;5197102;28;20084;-74
2021/10/22 10:59:09;;;;;;;7.50;2.60;;;;;;;12.49;100.00;101787.47;5197205;28;20029;-74
2021/10/22 11:01:54;;;;;;;9.27;2.47;;;;;;;12.30;100.00;101782.25;5196712;28;20060;-74
2021/10/22 11:04:46;;;;;;;16.23;2.28;;;;;;;12.27;100.00;101780.72;5185965;28;20467;-74
2021/10/22 11:07:33;;;;;;;13.52;2.20;;;;;;;12.41;100.00;101793.66;5196449;28;20022;-75
2021/10/22 11:10:03;;;;;;;18.17;2.95;;;;;;;12.50;100.00;101801.75;5196677;28;20127;-74
2021/10/22 11:13:13;;;;;;;12.98;1.73;;;;;;;12.54;100.00;101795.06;5196391;28;20761;-74
2021/10/22 11:15:43;;;;;;;11.82;1.77;;;;;;;12.44;100.00;101792.47;5197007;28;20025;-74
2021/10/22 11:18:15;;;;;;;12.13;2.10;;;;;;;12.25;100.00;101795.31;5197203;28;20379;-74
2021/10/22 11:20:48;;;;;;;6.63;1.65;;;;;;;12.07;100.00;101801.56;5195105;28;20056;-74
2021/10/22 11:23:18;;;;;;;12.85;1.92;;;;;;;12.01;100.00;101809.41;5210184;28;20242;-74
2021/10/22 11:25:55;;;;;;;15.32;1.85;;;;;;;11.84;100.00;101801.13;5196059;28;20211;-74
2021/10/22 11:28:32;;;;;;;8.85;2.25;;;;;;;12.03;100.00;101802.00;5196575;28;20021;-74
2021/10/22 11:31:02;;;;;;;16.90;2.72;;;;;;;11.97;100.00;101810.69;5196166;28;20072;-74
2021/10/22 11:33:33;;;;;;;9.88;1.95;;;;;;;12.03;100.00;101804.69;5197254;28;20052;-73
2021/10/22 11:36:04;;;;;;;12.02;2.03;;;;;;;12.10;100.00;101806.66;5195336;28;20064;-74
2021/10/22 11:38:34;;;;;;;11.10;1.90;;;;;;;12.06;100.00;101816.00;5195384;28;20412;-74